Time;durP1;ratioP1;P1;durP2;ratioP2;P2;SDS_P1;SDS_P2;PMS_P1;PMS_P2;Temp;Humidity;BMP_temperature;BMP_pressure;BME280_temperature;BME280_humidity;BME280_pressure;Samples;Min_cycle;Max_cycle;Signal;HPM_P1;HPM_P2
2023/03/13 00:00:00;;;;;;;29.50;27.70;;;7.50;99.90;;;;;;5206954;28;20469;-79
2023/03/13 00:02:30;;;;;;;29.88;27.88;;;7.60;99.90;;;;;;5205472;28;20022;-75
2023/03/13 00:05:02;;;;;;;28.67;26.58;;;7.60;99.90;;;;;;5205476;28;20031;-78
2023/03/13 00:07:33;;;;;;;29.38;27.10;;;7.60;99.90;;;;;;5206657;28;20032;-79
2023/03/13 00:10:05;;;;;;;31.52;29.40;;;7.60;99.90;;;;;;5206845;28;20045;-77
2023/03/13 00:12:36;;;;;;;29.38;27.38;;;7.40;99.90;;;;;;5205970;28;20076;-78
2023/03/13 00:15:07;;;;;;;32.15;30.23;;;7.60;99.90;;;;;;5206210;28;20043;-79
2023/03/13 00:17:38;;;;;;;30.85;28.92;;;7.60;99.90;;;;;;5207014;28;20021;-79
2023/03/13 00:20:10;;;;;;;31.45;29.55;;;7.50;99.90;;;;;;5206254;28;20032;-78
2023/03/13 00:22:40;;;;;;;31.30;29.30;;;7.50;99.90;;;;;;5206620;28;20033;-79
2023/03/13 00:25:11;;;;;;;31.60;29.58;;;7.60;99.90;;;;;;5206530;28;20017;-79
2023/03/13 00:27:42;;;;;;;31.15;29.35;;;7.40;99.90;;;;;;5205433;28;20029;-79
2023/03/13 00:30:13;;;;;;;31.15;29.15;;;7.50;99.90;;;;;;5207050;28;20020;-78
2023/03/13 00:32:45;;;;;;;32.47;30.48;;;7.50;99.90;;;;;;5206501;28;20059;-78
2023/03/13 00:35:16;;;;;;;33.33;31.38;;;7.50;99.90;;;;;;5206324;28;20032;-78
2023/03/13 00:37:47;;;;;;;33.80;31.70;;;7.30;99.90;;;;;;5206128;28;20038;-79
2023/03/13 00:40:19;;;;;;;32.85;30.95;;;7.40;99.90;;;;;;5204496;28;20038;-79
2023/03/13 00:42:49;;;;;;;33.28;31.17;;;7.30;99.90;;;;;;5206142;28;20029;-79
2023/03/13 00:45:20;;;;;;;33.40;31.27;;;7.40;99.90;;;;;;5206048;28;20028;-78
2023/03/13 00:47:51;;;;;;;32.17;29.98;;;7.20;99.90;;;;;;5205831;28;20111;-78
2023/03/13 00:50:22;;;;;;;33.67;31.55;;;7.20;99.90;;;;;;5205956;28;20053;-79
2023/03/13 00:52:53;;;;;;;34.58;32.40;;;7.30;99.90;;;;;;5204551;28;20481;-79
2023/03/13 00:55:24;;;;;;;35.72;33.30;;;7.30;99.90;;;;;;5205911;28;20021;-72
2023/03/13 00:57:54;;;;;;;33.42;31.02;;;7.40;99.90;;;;;;5205718;28;20029;-76
2023/03/13 01:00:25;;;;;;;35.85;33.75;;;7.30;99.90;;;;;;5204376;28;20381;-78
2023/03/13 01:02:56;;;;;;;33.53;31.40;;;7.20;99.90;;;;;;5205788;28;20030;-78
2023/03/13 01:05:27;;;;;;;33.60;31.42;;;7.30;99.90;;;;;;5205698;28;20033;-77
2023/03/13 01:07:58;;;;;;;35.65;33.40;;;7.10;99.90;;;;;;5204159;28;20048;-77
2023/03/13 01:10:29;;;;;;;33.75;31.70;;;7.20;99.90;;;;;;5204231;28;20147;-77
2023/03/13 01:12:59;;;;;;;35.55;33.33;;;7.20;99.90;;;;;;5205405;28;20132;-77
2023/03/13 01:15:34;;;;;;;34.28;32.20;;;7.10;99.90;;;;;;5205481;28;20033;-77
2023/03/13 01:18:05;;;;;;;35.78;33.40;;;7.10;99.90;;;;;;5205403;28;20024;-78
2023/03/13 01:20:39;;;;;;;33.72;31.63;;;7.00;99.90;;;;;;5205116;28;20025;-78
2023/03/13 01:23:10;;;;;;;34.63;32.45;;;7.20;99.90;;;;;;5205446;28;20028;-77
2023/03/13 01:25:41;;;;;;;34.60;32.53;;;7.10;99.90;;;;;;5204786;28;20025;-78
2023/03/13 01:28:12;;;;;;;33.80;31.80;;;7.10;99.90;;;;;;5204940;28;20465;-78
2023/03/13 01:30:43;;;;;;;37.47;35.10;;;7.30;99.90;;;;;;5205402;28;20026;-78
2023/03/13 01:33:14;;;;;;;36.38;34.17;;;7.10;99.90;;;;;;5205317;28;20038;-77
2023/03/13 01:35:45;;;;;;;34.50;32.47;;;7.20;99.90;;;;;;5205884;28;20033;-77
2023/03/13 01:38:16;;;;;;;34.65;32.55;;;7.00;99.90;;;;;;5205605;28;20183;-77
2023/03/13 01:40:48;;;;;;;33.13;30.98;;;7.10;99.90;;;;;;5205306;28;20136;-79
2023/03/13 01:43:24;;;;;;;36.08;33.58;;;7.10;99.90;;;;;;5205136;28;20062;-78
2023/03/13 01:46:14;;;;;;;34.70;32.50;;;7.20;99.90;;;;;;5205479;28;20037;-75
2023/03/13 01:48:59;;;;;;;35.40;33.13;;;7.10;99.90;;;;;;5205509;28;20152;-76
2023/03/13 01:51:51;;;;;;;34.67;32.47;;;7.10;99.90;;;;;;5205435;28;20099;-77
2023/03/13 01:54:33;;;;;;;34.97;32.78;;;7.00;99.90;;;;;;5205245;28;20370;-77
2023/03/13 01:57:16;;;;;;;37.95;35.50;;;7.00;99.90;;;;;;5205233;28;20017;-77
2023/03/13 02:00:08;;;;;;;36.00;33.65;;;7.00;99.90;;;;;;5205352;28;20104;-77
2023/03/13 02:02:44;;;;;;;35.05;32.90;;;7.00;99.90;;;;;;5205073;28;20057;-77
2023/03/13 02:05:18;;;;;;;36.80;34.60;;;7.00;99.90;;;;;;5205094;28;20028;-76
2023/03/13 02:08:07;;;;;;;35.70;33.30;;;7.10;99.90;;;;;;5204603;28;20107;-75
2023/03/13 02:10:43;;;;;;;34.80;32.67;;;7.00;99.90;;;;;;5204980;28;20034;-77
2023/03/13 02:13:16;;;;;;;34.75;32.20;;;7.10;99.90;;;;;;5204795;28;20032;-77
2023/03/13 02:15:47;;;;;;;33.58;31.52;;;7.00;99.90;;;;;;5204881;28;20855;-76
2023/03/13 02:18:18;;;;;;;34.17;32.08;;;7.20;99.90;;;;;;5204869;28;20072;-77
2023/03/13 02:20:53;;;;;;;36.58;34.38;;;7.00;99.90;;;;;;5204854;28;20029;-77
2023/03/13 02:23:32;;;;;;;35.67;33.53;;;7.20;99.90;;;;;;5204756;28;20017;-78
2023/03/13 02:26:03;;;;;;;34.35;32.20;;;7.00;99.90;;;;;;5203611;28;20034;-76
2023/03/13 02:28:38;;;;;;;33.45;31.55;;;7.00;99.90;;;;;;5205052;28;20049;-77
2023/03/13 02:31:09;;;;;;;33.58;31.40;;;7.10;99.90;;;;;;5195751;28;20034;-77
2023/03/13 02:33:43;;;;;;;35.85;33.65;;;7.20;99.90;;;;;;5184365;28;20161;-77
2023/03/13 02:36:15;;;;;;;31.00;29.15;;;7.10;99.90;;;;;;5201983;28;20117;-72
2023/03/13 02:38:54;;;;;;;32.80;30.90;;;7.20;99.90;;;;;;5208537;28;20029;-78
2023/03/13 02:41:26;;;;;;;34.60;32.60;;;6.90;99.90;;;;;;5207093;28;20033;-77
2023/03/13 02:43:57;;;;;;;34.13;31.98;;;7.00;99.90;;;;;;5208681;28;20022;-77
2023/03/13 02:46:28;;;;;;;32.50;30.60;;;7.00;99.90;;;;;;5208079;28;20036;-77
2023/03/13 02:49:31;;;;;;;32.42;30.52;;;6.90;99.90;;;;;;5208201;28;20030;-77
2023/03/13 02:52:16;;;;;;;33.30;31.38;;;7.00;99.90;;;;;;5208747;28;20022;-77
2023/03/13 02:54:50;;;;;;;33.22;31.30;;;7.00;99.90;;;;;;5208514;28;20109;-77
2023/03/13 02:57:21;;;;;;;32.42;30.50;;;6.90;99.90;;;;;;5208528;28;20053;-71
2023/03/13 02:59:52;;;;;;;32.95;31.02;;;6.90;99.90;;;;;;5208225;28;20033;-77
2023/03/13 03:02:23;;;;;;;34.10;32.17;;;6.90;99.90;;;;;;5207598;28;20026;-76
2023/03/13 03:04:54;;;;;;;33.05;31.13;;;6.90;99.90;;;;;;5208213;28;20108;-75
2023/03/13 03:07:25;;;;;;;33.20;30.95;;;6.90;99.90;;;;;;5208059;28;20165;-77
2023/03/13 03:09:56;;;;;;;36.13;33.92;;;6.80;99.90;;;;;;5207830;28;20515;-76
2023/03/13 03:12:27;;;;;;;34.53;32.53;;;6.90;99.90;;;;;;5207949;28;20397;-77
2023/03/13 03:14:58;;;;;;;34.17;32.17;;;6.80;99.90;;;;;;5208053;28;20374;-76
2023/03/13 03:17:29;;;;;;;34.22;32.33;;;6.70;99.90;;;;;;5207868;28;20428;-78
2023/03/13 03:20:00;;;;;;;37.03;34.85;;;6.70;99.90;;;;;;5207614;28;20037;-76
2023/03/13 03:22:30;;;;;;;36.45;34.17;;;6.80;99.90;;;;;;5207720;28;20034;-77
2023/03/13 03:25:01;;;;;;;33.35;31.48;;;6.70;99.90;;;;;;5207795;28;20059;-77
2023/03/13 03:27:32;;;;;;;35.20;33.08;;;6.60;99.90;;;;;;5207730;28;20151;-77
2023/03/13 03:30:04;;;;;;;36.05;33.85;;;6.60;99.90;;;;;;5207723;28;20037;-78
2023/03/13 03:32:35;;;;;;;37.50;35.20;;;6.70;99.90;;;;;;5205562;28;20048;-77
2023/03/13 03:35:06;;;;;;;35.20;33.08;;;6.70;99.90;;;;;;5206095;28;20018;-78
2023/03/13 03:37:37;;;;;;;34.38;31.98;;;6.80;99.90;;;;;;5206136;28;20425;-72
2023/03/13 03:40:09;;;;;;;35.00;33.05;;;6.70;99.90;;;;;;5207044;28;20033;-76
2023/03/13 03:42:40;;;;;;;33.45;31.35;;;6.80;99.90;;;;;;5206232;28;20024;-78
2023/03/13 03:45:11;;;;;;;34.05;32.00;;;6.80;99.90;;;;;;5207559;28;20469;-78
2023/03/13 03:47:42;;;;;;;35.15;33.13;;;6.90;99.90;;;;;;5205977;28;20021;-77
2023/03/13 03:50:13;;;;;;;35.08;32.80;;;7.00;99.90;;;;;;5203718;28;20064;-73
2023/03/13 03:52:44;;;;;;;32.58;30.63;;;6.70;99.90;;;;;;5206951;28;20508;-77
2023/03/13 03:55:15;;;;;;;35.45;33.30;;;6.80;99.90;;;;;;5207398;28;20109;-78
2023/03/13 03:57:45;;;;;;;35.25;33.13;;;6.90;99.90;;;;;;5207350;28;20461;-70
2023/03/13 04:00:20;;;;;;;34.90;32.83;;;7.00;99.90;;;;;;5207259;28;20079;-79
2023/03/13 04:02:51;;;;;;;33.63;31.45;;;6.90;99.90;;;;;;5207043;28;20469;-77
2023/03/13 04:05:23;;;;;;;36.30;33.90;;;7.00;99.90;;;;;;5207072;28;20053;-79
2023/03/13 04:07:54;;;;;;;33.58;31.58;;;7.00;99.90;;;;;;5207027;28;20188;-78
2023/03/13 04:10:25;;;;;;;33.30;31.38;;;7.00;99.90;;;;;;5207367;28;20069;-78
2023/03/13 04:12:56;;;;;;;34.47;32.50;;;7.10;99.90;;;;;;5207162;28;20072;-78
2023/03/13 04:15:27;;;;;;;32.85;30.90;;;6.90;99.90;;;;;;5205830;28;20017;-79
2023/03/13 04:17:58;;;;;;;34.55;32.03;;;6.80;99.90;;;;;;5205743;28;20036;-79
2023/03/13 04:20:30;;;;;;;36.95;34.75;;;6.90;99.90;;;;;;5206790;28;20022;-79
2023/03/13 04:23:01;;;;;;;35.33;33.22;;;6.60;99.90;;;;;;5206528;28;20022;-75
2023/03/13 04:25:32;;;;;;;36.22;34.22;;;6.80;99.90;;;;;;5206611;28;20357;-79
2023/03/13 04:28:03;;;;;;;37.45;35.30;;;6.60;99.90;;;;;;5206746;28;20021;-79
2023/03/13 04:30:33;;;;;;;35.05;32.75;;;6.50;99.90;;;;;;5206604;28;20377;-77
2023/03/13 04:33:04;;;;;;;36.70;34.60;;;6.60;99.90;;;;;;5206138;28;20045;-76
2023/03/13 04:35:35;;;;;;;34.83;32.78;;;6.40;99.90;;;;;;5206311;28;20025;-75
2023/03/13 04:38:06;;;;;;;36.15;33.72;;;6.40;99.90;;;;;;5206089;28;20478;-77
2023/03/13 04:40:37;;;;;;;37.88;35.47;;;6.60;99.90;;;;;;5206252;28;20136;-78
2023/03/13 04:43:08;;;;;;;35.25;33.15;;;6.60;99.90;;;;;;5206364;28;20057;-78
2023/03/13 04:45:39;;;;;;;36.22;34.13;;;6.70;99.90;;;;;;5205031;28;20040;-78
2023/03/13 04:48:10;;;;;;;37.13;34.80;;;6.70;99.90;;;;;;5206177;28;20026;-72
2023/03/13 04:50:40;;;;;;;38.03;35.55;;;6.60;99.90;;;;;;5205584;28;20039;-78
2023/03/13 04:53:11;;;;;;;36.75;34.42;;;6.70;99.90;;;;;;5204461;28;20041;-78
2023/03/13 04:55:43;;;;;;;34.65;32.42;;;6.80;99.90;;;;;;5204672;28;20769;-79
2023/03/13 04:58:13;;;;;;;35.20;33.08;;;6.70;99.90;;;;;;5206016;28;20503;-75
2023/03/13 05:00:44;;;;;;;34.13;32.03;;;6.60;99.90;;;;;;5205534;28;20025;-77
2023/03/13 05:03:15;;;;;;;34.88;32.78;;;6.60;99.90;;;;;;5205392;28;20120;-78
2023/03/13 05:05:46;;;;;;;36.22;34.10;;;6.80;99.90;;;;;;5205827;28;20022;-79
2023/03/13 05:08:17;;;;;;;33.80;31.65;;;6.70;99.90;;;;;;5204291;28;20144;-79
2023/03/13 05:10:48;;;;;;;33.25;31.25;;;6.90;99.90;;;;;;5205896;28;20053;-79
2023/03/13 05:13:19;;;;;;;31.48;29.48;;;6.80;99.90;;;;;;5205855;28;20087;-77
2023/03/13 05:15:50;;;;;;;34.20;32.05;;;7.00;99.90;;;;;;5205727;28;20035;-74
2023/03/13 05:18:21;;;;;;;33.88;31.67;;;6.90;99.90;;;;;;5205596;28;20075;-78
2023/03/13 05:20:52;;;;;;;31.58;29.50;;;6.90;99.90;;;;;;5205687;28;20029;-78
2023/03/13 05:23:22;;;;;;;33.17;31.08;;;6.90;99.90;;;;;;5205834;28;20017;-79
2023/03/13 05:25:53;;;;;;;35.08;32.92;;;6.80;99.90;;;;;;5205792;28;20060;-78
2023/03/13 05:28:25;;;;;;;32.53;30.73;;;7.00;99.90;;;;;;5205656;28;20448;-78
2023/03/13 05:30:56;;;;;;;31.27;29.10;;;6.90;99.90;;;;;;5205636;28;20025;-77
2023/03/13 05:33:26;;;;;;;35.65;32.85;;;7.30;99.90;;;;;;5205416;28;20050;-79
2023/03/13 05:35:57;;;;;;;32.15;29.90;;;7.40;99.90;;;;;;5205407;28;20029;-79
2023/03/13 05:38:28;;;;;;;28.45;26.75;;;7.80;99.90;;;;;;5205211;28;20045;-80
2023/03/13 05:40:59;;;;;;;31.92;30.13;;;8.00;99.90;;;;;;5203889;28;20037;-77
2023/03/13 05:43:30;;;;;;;31.33;29.02;;;7.70;99.90;;;;;;5205382;28;20481;-71
2023/03/13 05:46:01;;;;;;;30.42;28.23;;;7.70;99.90;;;;;;5205282;28;20041;-75
2023/03/13 05:48:32;;;;;;;34.03;31.80;;;8.20;99.90;;;;;;5205324;28;20025;-74
2023/03/13 05:51:03;;;;;;;36.03;33.55;;;8.00;99.90;;;;;;5205005;28;20087;-76
2023/03/13 05:53:33;;;;;;;32.35;30.27;;;8.10;99.90;;;;;;5204982;28;20033;-76
2023/03/13 05:56:04;;;;;;;31.38;29.55;;;8.20;99.90;;;;;;5203834;28;20029;-73
2023/03/13 05:58:35;;;;;;;33.30;31.30;;;7.80;99.90;;;;;;5203749;28;20036;-74
2023/03/13 06:01:11;;;;;;;34.03;31.92;;;8.40;99.90;;;;;;5205008;28;20703;-78
2023/03/13 06:03:42;;;;;;;31.67;29.52;;;8.40;99.90;;;;;;5203738;28;20033;-73
2023/03/13 06:06:13;;;;;;;38.10;35.85;;;8.50;99.90;;;;;;5198313;28;20093;-77
2023/03/13 06:08:44;;;;;;;36.70;34.17;;;8.40;99.90;;;;;;5202430;28;20049;-77
2023/03/13 06:11:15;;;;;;;34.85;32.70;;;7.90;99.90;;;;;;5203558;28;20029;-75
2023/03/13 06:13:46;;;;;;;34.05;31.95;;;7.90;99.90;;;;;;5207099;28;20034;-78
2023/03/13 06:16:16;;;;;;;33.97;31.95;;;8.00;99.90;;;;;;5208831;28;20104;-78
2023/03/13 06:18:47;;;;;;;33.78;31.58;;;8.30;99.90;;;;;;5205746;28;20034;-69
2023/03/13 06:21:18;;;;;;;34.35;32.33;;;8.30;99.90;;;;;;5198141;28;20037;-78
2023/03/13 06:23:49;;;;;;;34.45;32.42;;;7.90;99.90;;;;;;5199938;28;20036;-78
2023/03/13 06:26:20;;;;;;;34.60;32.42;;;7.90;99.90;;;;;;5197854;28;20024;-76
2023/03/13 06:28:51;;;;;;;32.85;30.80;;;7.80;99.90;;;;;;5195196;28;20029;-78
2023/03/13 06:31:23;;;;;;;33.92;31.70;;;7.60;99.90;;;;;;5199375;28;20018;-70
2023/03/13 06:33:54;;;;;;;34.10;31.90;;;7.60;99.90;;;;;;5196995;28;20368;-77
2023/03/13 06:36:25;;;;;;;33.30;31.13;;;7.50;99.90;;;;;;5198047;28;20017;-78
2023/03/13 06:38:56;;;;;;;33.45;31.30;;;7.40;99.90;;;;;;5195437;28;20425;-77
2023/03/13 06:41:26;;;;;;;37.25;34.97;;;7.50;99.90;;;;;;5196839;28;20033;-73
2023/03/13 06:43:57;;;;;;;35.63;33.55;;;7.60;99.90;;;;;;5196321;28;20458;-77
2023/03/13 06:46:28;;;;;;;32.40;30.50;;;7.80;99.90;;;;;;5194716;28;20025;-77
2023/03/13 06:49:03;;;;;;;33.08;31.17;;;8.30;99.90;;;;;;5188155;28;20545;-73
2023/03/13 06:51:34;;;;;;;33.95;31.70;;;8.70;99.90;;;;;;5188102;28;20478;-76
2023/03/13 06:54:05;;;;;;;31.58;29.80;;;9.20;99.90;;;;;;5187934;28;20073;-74
2023/03/13 06:56:35;;;;;;;31.67;29.77;;;8.80;99.90;;;;;;5187653;28;20030;-72
2023/03/13 06:59:06;;;;;;;42.00;38.83;;;9.10;99.90;;;;;;5199222;28;20030;-72
2023/03/13 07:01:37;;;;;;;31.40;29.35;;;8.80;99.90;;;;;;5189472;28;20037;-79
2023/03/13 07:04:12;;;;;;;30.50;28.70;;;8.60;99.90;;;;;;5188140;28;20120;-78
2023/03/13 07:06:43;;;;;;;32.40;30.55;;;8.40;99.90;;;;;;5208139;28;20033;-82
2023/03/13 07:09:14;;;;;;;81.70;75.90;;;8.30;99.90;;;;;;5207657;28;20053;-77
2023/03/13 07:11:45;;;;;;;29.65;27.77;;;8.20;99.90;;;;;;5206286;28;20110;-70
2023/03/13 07:14:16;;;;;;;30.35;28.40;;;8.50;99.90;;;;;;5204792;28;20033;-79
2023/03/13 07:16:46;;;;;;;32.40;30.30;;;8.30;99.90;;;;;;5207005;28;20044;-80
2023/03/13 07:19:17;;;;;;;31.30;29.42;;;8.50;99.90;;;;;;5205025;28;20029;-73
2023/03/13 07:21:48;;;;;;;30.83;29.02;;;8.40;99.90;;;;;;5186300;28;20026;-75
2023/03/13 07:24:19;;;;;;;30.88;28.83;;;9.00;99.90;;;;;;5183150;28;20367;-76
2023/03/13 07:26:50;;;;;;;28.83;27.08;;;9.20;99.90;;;;;;5185145;28;20029;-79
2023/03/13 07:29:21;;;;;;;27.08;25.58;;;9.40;99.90;;;;;;5187123;28;20022;-79
2023/03/13 07:31:52;;;;;;;28.63;26.80;;;9.40;99.90;;;;;;5185840;28;20074;-79
2023/03/13 07:34:23;;;;;;;30.60;28.75;;;9.50;99.90;;;;;;5186886;28;20022;-79
2023/03/13 07:36:54;;;;;;;29.42;27.63;;;9.50;99.90;;;;;;5186557;28;20022;-76
2023/03/13 07:39:24;;;;;;;27.88;26.25;;;9.90;99.90;;;;;;5187021;28;20149;-71
2023/03/13 07:41:55;;;;;;;28.73;26.92;;;10.10;99.90;;;;;;5187019;28;20049;-79
2023/03/13 07:44:26;;;;;;;25.25;23.60;;;10.50;99.90;;;;;;5185789;28;20026;-77
2023/03/13 07:47:01;;;;;;;29.50;27.55;;;9.40;99.90;;;;;;5187477;28;20098;-79
2023/03/13 07:49:32;;;;;;;26.10;24.50;;;9.60;99.90;;;;;;5187435;28;20109;-77
2023/03/13 07:52:03;;;;;;;25.50;24.00;;;9.90;99.90;;;;;;5185919;28;20508;-80
2023/03/13 07:54:34;;;;;;;29.63;27.73;;;10.10;99.90;;;;;;5185799;28;20248;-77
2023/03/13 07:57:05;;;;;;;27.05;25.23;;;9.80;99.90;;;;;;5185496;28;20121;-71
2023/03/13 07:59:36;;;;;;;28.27;26.48;;;10.20;99.90;;;;;;5186811;28;20466;-72
2023/03/13 08:02:11;;;;;;;28.92;27.13;;;9.50;99.90;;;;;;5186817;28;20034;-78
2023/03/13 08:04:42;;;;;;;28.10;26.33;;;9.40;99.90;;;;;;5187020;28;20413;-79
2023/03/13 08:07:13;;;;;;;27.40;25.52;;;9.80;99.90;;;;;;5186956;28;20041;-79
2023/03/13 08:09:43;;;;;;;27.70;25.75;;;9.60;99.90;;;;;;5186151;28;20042;-75
2023/03/13 08:12:14;;;;;;;26.05;24.45;;;10.10;99.90;;;;;;5186490;28;20128;-76
2023/03/13 08:14:45;;;;;;;24.27;22.63;;;10.50;99.90;;;;;;5186322;28;20101;-69
2023/03/13 08:17:16;;;;;;;23.30;21.85;;;10.70;99.90;;;;;;5186301;28;20925;-71
2023/03/13 08:19:47;;;;;;;25.38;23.67;;;10.70;99.90;;;;;;5186270;28;20034;-70
2023/03/13 08:22:18;;;;;;;26.25;24.65;;;9.90;99.90;;;;;;5186156;28;20033;-72
2023/03/13 08:24:48;;;;;;;26.80;25.20;;;9.90;99.90;;;;;;5185967;28;20026;-68
2023/03/13 08:27:19;;;;;;;25.67;24.08;;;9.20;99.90;;;;;;5184963;28;20040;-71
2023/03/13 08:29:50;;;;;;;24.90;23.33;;;9.60;99.90;;;;;;5185898;28;20033;-79
2023/03/13 08:32:21;;;;;;;25.92;24.35;;;9.60;99.90;;;;;;5184579;28;20041;-71
2023/03/13 08:34:52;;;;;;;26.38;24.67;;;9.80;99.90;;;;;;5184205;28;20024;-78
2023/03/13 08:37:23;;;;;;;24.67;23.08;;;9.90;99.90;;;;;;5185647;28;20100;-71
2023/03/13 08:39:55;;;;;;;24.63;23.10;;;9.50;99.90;;;;;;5185776;28;20568;-73
2023/03/13 08:42:26;;;;;;;24.95;23.30;;;9.60;99.90;;;;;;5184352;28;20188;-79
2023/03/13 08:44:57;;;;;;;27.00;25.40;;;9.90;99.90;;;;;;5185796;28;20108;-72
2023/03/13 08:47:28;;;;;;;23.48;21.80;;;9.90;99.90;;;;;;5185913;28;20023;-78
2023/03/13 08:49:59;;;;;;;25.55;23.98;;;10.10;99.90;;;;;;5185933;28;20026;-76
2023/03/13 08:52:29;;;;;;;23.30;21.98;;;9.40;99.90;;;;;;5185822;28;20026;-74
2023/03/13 08:55:00;;;;;;;27.52;25.70;;;9.80;99.90;;;;;;5185667;28;20026;-77
2023/03/13 08:57:31;;;;;;;26.95;25.38;;;9.20;99.90;;;;;;5185635;28;20092;-77
2023/03/13 09:00:05;;;;;;;28.67;26.95;;;9.70;99.90;;;;;;5185613;28;20027;-79
2023/03/13 09:02:36;;;;;;;28.27;26.48;;;10.20;99.90;;;;;;5185985;28;20021;-78
2023/03/13 09:05:07;;;;;;;24.17;22.58;;;10.70;99.90;;;;;;5185759;28;20486;-78
2023/03/13 09:07:38;;;;;;;26.75;24.95;;;9.90;99.90;;;;;;5185166;28;20021;-76
2023/03/13 09:10:09;;;;;;;25.45;23.88;;;10.50;99.90;;;;;;5185420;28;20169;-76
2023/03/13 09:12:41;;;;;;;23.92;22.33;;;10.30;99.90;;;;;;5185439;28;20359;-73
2023/03/13 09:15:13;;;;;;;25.42;23.73;;;9.70;99.90;;;;;;5185325;28;20501;-80
2023/03/13 09:17:44;;;;;;;24.52;23.02;;;10.30;99.90;;;;;;5185370;28;20030;-72
2023/03/13 09:20:17;;;;;;;24.45;22.85;;;10.10;99.90;;;;;;5185142;28;20029;-78
2023/03/13 09:22:48;;;;;;;27.77;25.88;;;9.80;99.90;;;;;;5185390;28;20077;-79
2023/03/13 09:25:19;;;;;;;26.73;25.08;;;9.20;99.90;;;;;;5185187;28;20026;-79
2023/03/13 09:27:50;;;;;;;27.35;25.60;;;9.80;99.90;;;;;;5185068;28;20105;-78
2023/03/13 09:30:21;;;;;;;25.33;23.73;;;9.70;99.90;;;;;;5185200;28;20037;-79
2023/03/13 09:32:52;;;;;;;25.15;23.73;;;9.30;99.90;;;;;;5185210;28;20091;-74
2023/03/13 09:35:23;;;;;;;26.48;24.80;;;9.40;99.90;;;;;;5184982;28;20018;-77
2023/03/13 09:37:53;;;;;;;26.48;24.60;;;10.60;99.90;;;;;;5184903;28;20061;-77
2023/03/13 09:40:27;;;;;;;25.42;23.85;;;10.70;99.90;;;;;;5184971;28;20049;-77
2023/03/13 09:42:59;;;;;;;24.60;23.00;;;10.00;99.90;;;;;;5185131;28;20451;-78
2023/03/13 09:45:42;;;;;;;24.10;22.73;;;9.70;99.90;;;;;;5183574;28;20465;-68
2023/03/13 09:48:22;;;;;;;26.42;24.83;;;9.70;99.90;;;;;;5183040;28;20485;-69
2023/03/13 09:51:05;;;;;;;;;;;9.30;99.90;;;;;;5185354;28;20018;-74
2023/03/13 09:53:55;;;;;;;23.52;21.92;;;10.20;99.90;;;;;;5184781;28;20368;-78
2023/03/13 09:56:38;;;;;;;25.40;23.63;;;9.90;99.90;;;;;;5204506;28;20029;-81
2023/03/13 09:59:19;;;;;;;27.60;25.92;;;9.20;99.90;;;;;;5204942;28;20030;-77
2023/03/13 10:01:52;;;;;;;26.58;24.98;;;10.70;99.90;;;;;;5205103;28;20385;-76
2023/03/13 10:04:28;;;;;;;26.58;24.92;;;11.10;99.90;;;;;;5205377;28;20037;-78
2023/03/13 10:06:59;;;;;;;48.97;46.03;;;11.10;99.90;;;;;;5205453;28;20029;-77
2023/03/13 10:09:32;;;;;;;28.73;26.92;;;10.50;99.90;;;;;;5205303;28;20048;-78
2023/03/13 10:12:21;;;;;;;26.50;24.55;;;10.10;99.90;;;;;;5205862;28;20358;-82
2023/03/13 10:15:16;;;;;;;25.15;23.60;;;10.50;99.90;;;;;;5204008;28;20026;-79
2023/03/13 10:17:48;;;;;;;29.40;27.55;;;9.90;99.90;;;;;;5205553;28;20042;-82
2023/03/13 10:20:27;;;;;;;30.75;28.85;;;9.50;99.90;;;;;;5205666;28;20017;-80
2023/03/13 10:23:04;;;;;;;29.67;27.52;;;9.70;99.90;;;;;;5205334;28;20032;-79
2023/03/13 10:25:39;;;;;;;26.20;24.60;;;10.90;99.90;;;;;;5205191;28;20056;-74
2023/03/13 10:28:13;;;;;;;27.50;25.77;;;10.80;99.90;;;;;;5205123;28;20101;-73
2023/03/13 10:31:09;;;;;;;26.25;24.48;;;10.20;99.90;;;;;;5204942;28;20026;-78
2023/03/13 10:33:42;;;;;;;26.92;25.08;;;9.90;99.90;;;;;;5204672;28;20125;-76
2023/03/13 10:36:14;;;;;;;25.98;24.30;;;10.10;99.90;;;;;;5204825;28;20031;-79
2023/03/13 10:38:48;;;;;;;27.98;26.30;;;10.10;99.90;;;;;;5204692;28;20033;-72
2023/03/13 10:41:24;;;;;;;24.63;23.13;;;9.80;99.90;;;;;;5204813;28;20435;-79
2023/03/13 10:44:03;;;;;;;26.77;25.17;;;10.80;99.90;;;;;;5204961;28;20037;-69
2023/03/13 10:46:41;;;;;;;26.05;24.27;;;10.10;99.90;;;;;;5205077;28;20018;-77
2023/03/13 10:49:18;;;;;;;30.80;28.77;;;10.20;99.90;;;;;;5203483;28;20041;-79
2023/03/13 10:51:50;;;;;;;24.15;22.63;;;10.20;99.90;;;;;;5204578;28;20025;-78
2023/03/13 10:54:22;;;;;;;25.95;24.35;;;10.40;99.90;;;;;;5204571;28;20381;-78
2023/03/13 10:57:12;;;;;;;25.17;23.50;;;10.00;99.90;;;;;;5204570;28;20021;-78
2023/03/13 10:59:46;;;;;;;25.07;23.40;;;10.20;99.90;;;;;;5206652;28;20465;-78
2023/03/13 11:02:19;;;;;;;23.75;22.10;;;10.20;99.90;;;;;;5207748;28;20829;-71
2023/03/13 11:04:52;;;;;;;25.63;24.02;;;9.80;99.90;;;;;;5207784;28;20013;-71
2023/03/13 11:07:34;;;;;;;28.27;26.50;;;9.80;99.90;;;;;;5207820;28;20017;-79
2023/03/13 11:10:16;;;;;;;26.45;24.77;;;9.90;99.90;;;;;;5207850;28;20045;-78
2023/03/13 11:12:53;;;;;;;26.27;24.48;;;10.00;99.90;;;;;;5206566;28;20056;-70
2023/03/13 11:15:40;;;;;;;22.25;20.80;;;10.20;99.90;;;;;;5208132;28;20025;-77
2023/03/13 11:18:25;;;;;;;26.70;25.10;;;10.70;99.90;;;;;;5208091;28;20030;-77
2023/03/13 11:20:58;;;;;;;24.67;22.98;;;10.50;99.90;;;;;;5207993;28;20018;-71
2023/03/13 11:23:39;;;;;;;22.13;20.73;;;10.40;99.90;;;;;;5207785;28;20024;-76
2023/03/13 11:26:36;;;;;;;24.00;22.45;;;9.80;99.90;;;;;;5207821;28;20052;-75
2023/03/13 11:29:18;;;;;;;26.83;25.20;;;9.70;99.90;;;;;;5207782;28;20029;-72
2023/03/13 11:32:05;;;;;;;27.63;25.92;;;9.80;99.90;;;;;;5207784;28;20047;-79
2023/03/13 11:34:55;;;;;;;25.15;23.40;;;9.80;99.90;;;;;;5207835;28;20029;-78
2023/03/13 11:37:30;;;;;;;23.77;22.27;;;10.10;99.90;;;;;;5206398;28;20025;-78
2023/03/13 11:40:35;;;;;;;28.58;26.95;;;9.70;99.90;;;;;;5207880;28;20043;-77
2023/03/13 11:43:15;;;;;;;24.00;22.50;;;9.80;99.90;;;;;;5206660;28;20034;-77
2023/03/13 11:45:57;;;;;;;24.90;23.27;;;10.40;99.90;;;;;;5207623;28;20415;-72
2023/03/13 11:49:17;;;;;;;23.30;21.52;;;9.70;99.90;;;;;;5207707;28;20457;-80
2023/03/13 11:52:04;;;;;;;26.80;25.30;;;9.60;99.90;;;;;;5207632;28;20068;-79
2023/03/13 11:55:09;;;;;;;23.63;22.10;;;9.80;99.90;;;;;;5207305;28;20033;-73
2023/03/13 11:57:40;;;;;;;22.20;20.73;;;10.60;99.90;;;;;;5205690;28;20127;-80
2023/03/13 12:00:34;;;;;;;21.88;20.40;;;9.90;99.90;;;;;;5207255;28;20112;-78
2023/03/13 12:03:26;;;;;;;22.30;20.92;;;10.00;99.90;;;;;;5207290;28;20068;-72
2023/03/13 12:05:59;;;;;;;22.30;20.70;;;10.60;99.90;;;;;;5207337;28;20032;-78
2023/03/13 12:08:40;;;;;;;21.15;19.88;;;10.60;99.90;;;;;;5206800;28;20107;-80
2023/03/13 12:11:32;;;;;;;24.25;22.63;;;10.20;99.90;;;;;;5206047;28;20108;-80
2023/03/13 12:14:04;;;;;;;23.77;22.27;;;9.90;99.90;;;;;;5204961;28;20045;-78
2023/03/13 12:16:49;;;;;;;28.00;26.05;;;9.80;99.90;;;;;;5206771;28;20030;-80
2023/03/13 12:19:36;;;;;;;24.17;22.10;;;9.50;99.90;;;;;;5206611;28;20109;-76
2023/03/13 12:22:44;;;;;;;27.05;25.30;;;9.40;99.90;;;;;;5205812;28;20032;-79
2023/03/13 12:25:22;;;;;;;26.38;24.75;;;9.40;99.90;;;;;;5175187;28;20041;-79
2023/03/13 12:28:17;;;;;;;26.95;24.92;;;9.00;99.90;;;;;;5206253;28;20032;-76
2023/03/13 12:31:21;;;;;;;29.77;27.88;;;8.90;99.90;;;;;;5206723;28;20033;-78
2023/03/13 12:34:13;;;;;;;29.40;27.60;;;9.20;99.90;;;;;;5204963;28;20074;-74
2023/03/13 12:37:00;;;;;;;29.98;28.00;;;9.10;99.90;;;;;;5205166;28;20028;-73
2023/03/13 12:39:38;;;;;;;30.50;28.38;;;9.30;99.90;;;;;;5206280;28;20112;-80
2023/03/13 12:42:34;;;;;;;29.80;27.95;;;9.30;99.90;;;;;;5206240;28;20063;-81
2023/03/13 12:45:07;;;;;;;28.00;25.98;;;9.20;99.90;;;;;;5206668;28;20025;-68
2023/03/13 12:48:00;;;;;;;25.25;23.55;;;9.50;99.90;;;;;;5206600;28;20032;-78
2023/03/13 12:51:16;;;;;;;27.27;25.73;;;9.40;99.90;;;;;;5206396;28;20488;-78
2023/03/13 12:54:02;;;;;;;32.20;29.77;;;9.70;99.90;;;;;;5203905;28;20100;-79
2023/03/13 12:56:41;;;;;;;42.53;39.08;;;9.70;99.90;;;;;;5206598;28;20055;-84
2023/03/13 12:59:20;;;;;;;26.00;24.10;;;9.50;99.90;;;;;;5206506;28;20080;-87
2023/03/13 13:01:55;;;;;;;27.83;25.73;;;9.40;99.90;;;;;;5206372;28;20017;-85
2023/03/13 13:04:40;;;;;;;26.67;24.73;;;9.20;99.90;;;;;;5206081;28;20040;-83
2023/03/13 13:07:30;;;;;;;26.63;24.90;;;9.20;99.90;;;;;;5206384;28;20104;-87
2023/03/13 13:10:25;;;;;;;26.17;24.37;;;9.10;99.90;;;;;;5204594;28;20409;-77
2023/03/13 13:13:14;;;;;;;27.23;25.42;;;8.90;99.90;;;;;;5205982;28;20118;-84